Time;durP1;ratioP1;P1;durP2;ratioP2;P2;SDS_P1;SDS_P2;PMS_P1;PMS_P2;Temp;Humidity;BMP_temperature;BMP_pressure;BME280_temperature;BME280_humidity;BME280_pressure;Samples;Min_cycle;Max_cycle;Signal;HPM_P1;HPM_P2
2022/12/13 00:01:14;;;;;;;;;;;;;;;15.49;53.95;100210.03;4998695;28;1346;-47
2022/12/13 00:03:39;;;;;;;;;;;;;;;15.36;54.30;100238.00;4997993;28;1172;-48
2022/12/13 00:06:05;;;;;;;;;;;;;;;15.96;53.48;100231.78;4997993;28;1183;-48
2022/12/13 00:08:31;;;;;;;;;;;;;;;17.22;50.54;100229.41;4984843;28;909;-50
2022/12/13 00:11:00;;;;;;;;;;;;;;;16.21;52.90;100214.34;4997263;28;1918;-45
2022/12/13 00:13:25;;;;;;;;;;;;;;;15.70;53.76;100231.88;4998243;28;1197;-48
2022/12/13 00:16:00;;;;;;;;;;;;;;;15.52;53.91;100236.06;4984699;28;1168;-50
2022/12/13 00:18:26;;;;;;;;;;;;;;;15.72;53.94;100238.72;4997682;28;1117;-50
2022/12/13 00:20:51;;;;;;;;;;;;;;;17.20;50.31;100239.91;4997706;28;1165;-49
2022/12/13 00:23:17;;;;;;;;;;;;;;;16.21;52.63;100248.06;4997954;28;1140;-48
2022/12/13 00:25:42;;;;;;;;;;;;;;;15.77;53.70;100248.84;4997533;28;2593;-48
2022/12/13 00:28:08;;;;;;;;;;;;;;;15.56;53.68;100248.09;4997891;28;1212;-48
2022/12/13 00:30:33;;;;;;;;;;;;;;;15.33;53.91;100244.06;4996852;28;1910;-45
2022/12/13 00:32:59;;;;;;;;;;;;;;;16.67;51.72;100246.94;4997655;28;1183;-48
2022/12/13 00:35:24;;;;;;;;;;;;;;;17.03;50.45;100251.34;4997462;28;1185;-50
2022/12/13 00:37:49;;;;;;;;;;;;;;;16.10;53.06;100249.25;4997568;28;1185;-46
2022/12/13 00:40:15;;;;;;;;;;;;;;;15.72;53.59;100240.63;4997468;28;1101;-45
2022/12/13 00:42:40;;;;;;;;;;;;;;;15.51;54.09;100223.44;4997556;28;1042;-44
2022/12/13 00:45:06;;;;;;;;;;;;;;;15.40;53.85;100231.72;4997062;28;915;-47
2022/12/13 00:47:31;;;;;;;;;;;;;;;16.92;51.11;100225.88;4997479;28;1156;-46
2022/12/13 00:49:57;;;;;;;;;;;;;;;16.60;51.50;100221.75;4997036;28;1970;-45
2022/12/13 00:52:22;;;;;;;;;;;;;;;15.94;53.35;100210.13;4997291;28;1093;-47
2022/12/13 00:54:48;;;;;;;;;;;;;;;15.68;53.41;100212.97;4996091;28;2480;-46
2022/12/13 00:57:13;;;;;;;;;;;;;;;15.44;53.72;100212.78;4995672;28;1157;-47
2022/12/13 00:59:39;;;;;;;;;;;;;;;15.70;53.67;100209.94;4997221;28;1188;-45
2022/12/13 01:02:04;;;;;;;;;;;;;;;17.25;50.41;100195.84;4996900;28;1451;-48
2022/12/13 01:04:29;;;;;;;;;;;;;;;16.65;51.63;100201.66;4997548;28;1136;-49
2022/12/13 01:06:55;;;;;;;;;;;;;;;15.99;53.04;100192.81;4983301;28;1167;-52
2022/12/13 01:09:22;;;;;;;;;;;;;;;15.71;53.43;100200.59;4997091;28;957;-46
2022/12/13 01:11:47;;;;;;;;;;;;;;;16.76;51.49;100195.78;4979691;28;1979;-48
2022/12/13 01:14:13;;;;;;;;;;;;;;;16.77;51.15;100183.72;4997009;28;1054;-48
2022/12/13 01:16:38;;;;;;;;;;;;;;;16.07;52.62;100195.81;4997303;28;1108;-47
2022/12/13 01:19:04;;;;;;;;;;;;;;;15.79;53.08;100197.31;4996930;28;1191;-50
2022/12/13 01:21:29;;;;;;;;;;;;;;;16.22;52.67;100211.31;4996499;28;930;-49
2022/12/13 01:23:59;;;;;;;;;;;;;;;17.22;50.02;100210.19;4996514;28;2420;-49
2022/12/13 01:26:24;;;;;;;;;;;;;;;16.20;52.60;100207.22;4997112;28;1121;-50
2022/12/13 01:28:49;;;;;;;;;;;;;;;15.89;53.12;100208.25;4996731;28;1199;-52
2022/12/13 01:31:16;;;;;;;;;;;;;;;16.06;53.09;100216.09;4982824;28;1969;-50
2022/12/13 01:33:41;;;;;;;;;;;;;;;17.19;50.27;100200.59;4996577;28;949;-51
2022/12/13 01:36:08;;;;;;;;;;;;;;;16.26;52.21;100178.66;4996384;28;1275;-49
2022/12/13 01:38:33;;;;;;;;;;;;;;;15.83;53.00;100187.41;4996673;28;1191;-49
2022/12/13 01:40:59;;;;;;;;;;;;;;;15.67;53.46;100203.09;4996020;28;1168;-50
2022/12/13 01:43:48;;;;;;;;;;;;;;;16.07;52.93;100204.03;4996805;28;1219;-50
2022/12/13 01:46:14;;;;;;;;;;;;;;;17.25;49.96;100185.72;4975137;28;1161;-46
2022/12/13 01:48:41;;;;;;;;;;;;;;;16.26;52.44;100189.63;4997334;28;1172;-50
2022/12/13 01:51:07;;;;;;;;;;;;;;;15.82;53.03;100194.03;4978961;28;1922;-47
2022/12/13 01:53:34;;;;;;;;;;;;;;;16.81;51.00;100194.91;4996615;28;2234;-48
2022/12/13 01:56:01;;;;;;;;;;;;;;;16.82;50.66;100198.50;4979123;28;1145;-49
2022/12/13 01:58:26;;;;;;;;;;;;;;;16.11;52.75;100200.72;4965495;28;1125;-47
2022/12/13 02:00:52;;;;;;;;;;;;;;;15.78;53.08;100209.38;4996293;28;1140;-48
2022/12/13 02:03:17;;;;;;;;;;;;;;;16.68;51.47;100201.91;4996449;28;1181;-45
2022/12/13 02:05:44;;;;;;;;;;;;;;;16.62;51.46;100202.22;4982555;28;1152;-49
2022/12/13 02:08:10;;;;;;;;;;;;;;;16.00;52.54;100187.03;4996164;28;1078;-49
2022/12/13 02:10:35;;;;;;;;;;;;;;;15.74;53.23;100189.09;4979039;28;1977;-47
2022/12/13 02:13:01;;;;;;;;;;;;;;;16.46;51.97;100221.56;4996129;28;1112;-46
2022/12/13 02:15:27;;;;;;;;;;;;;;;16.96;50.24;100220.63;4996444;28;1108;-51
2022/12/13 02:17:56;;;;;;;;;;;;;;;16.10;52.55;100224.56;4978743;28;949;-50
2022/12/13 02:20:37;;;;;;;;;;;;;;;15.79;53.05;100224.72;4996257;28;1164;-50
2022/12/13 02:23:21;;;;;;;;;;;;;;;15.65;53.45;100223.66;4983763;28;1164;-46
2022/12/13 02:25:50;;;;;;;;;;;;;;;17.30;49.85;100220.53;4996215;28;2681;-47
2022/12/13 02:28:28;;;;;;;;;;;;;;;16.34;52.12;100221.94;4996596;28;1167;-46
2022/12/13 02:30:56;;;;;;;;;;;;;;;15.85;53.07;100220.03;4996193;28;1981;-48
2022/12/13 02:33:24;;;;;;;;;;;;;;;16.22;52.37;100232.44;4978401;28;931;-52
2022/12/13 02:36:06;;;;;;;;;;;;;;;17.28;49.35;100236.53;4995933;28;1204;-49
2022/12/13 02:38:36;;;;;;;;;;;;;;;16.23;52.09;100253.31;4996342;28;1117;-49
2022/12/13 02:41:01;;;;;;;;;;;;;;;15.86;53.02;100247.16;4996207;28;1121;-50
2022/12/13 02:43:31;;;;;;;;;;;;;;;15.69;53.17;100247.50;4995800;28;1176;-44
2022/12/13 02:45:58;;;;;;;;;;;;;;;16.70;51.35;100249.09;4978831;28;911;-46
2022/12/13 02:48:24;;;;;;;;;;;;;;;16.98;50.03;100235.69;4978203;28;1113;-48
2022/12/13 02:50:50;;;;;;;;;;;;;;;16.17;52.15;100251.69;4995669;28;1979;-45
2022/12/13 02:53:15;;;;;;;;;;;;;;;15.84;52.94;100249.38;4997845;28;1204;-46
2022/12/13 02:55:41;;;;;;;;;;;;;;;15.59;53.29;100235.78;4976259;28;2457;-49
2022/12/13 02:58:09;;;;;;;;;;;;;;;16.36;52.00;100243.59;4984824;28;890;-50
2022/12/13 03:00:55;;;;;;;;;;;;;;;17.01;49.97;100215.91;4980771;28;1122;-49
2022/12/13 03:03:27;;;;;;;;;;;;;;;16.06;52.35;100213.34;4999052;28;1476;-45
2022/12/13 03:09:07;;;;;;;;;;;;;;;17.33;49.25;100219.16;4984717;28;1089;-49
2022/12/13 03:14:35;;;;;;;;;;;;;;;15.83;52.77;100205.81;4987378;28;1051;-47
2022/12/13 03:17:02;;;;;;;;;;;;;;;15.59;53.05;100242.06;4998957;28;1125;-50
2022/12/13 03:19:28;;;;;;;;;;;;;;;16.58;51.53;100257.72;4981978;28;1188;-44
2022/12/13 03:21:53;;;;;;;;;;;;;;;16.83;50.63;100242.16;4987434;28;980;-49
2022/12/13 03:24:19;;;;;;;;;;;;;;;16.07;52.39;100258.88;4996936;28;1874;-46
2022/12/13 03:26:44;;;;;;;;;;;;;;;15.77;52.87;100275.41;4998918;28;1116;-46
2022/12/13 03:29:10;;;;;;;;;;;;;;;16.48;51.75;100281.66;4981581;28;1165;-49
2022/12/13 03:31:35;;;;;;;;;;;;;;;17.03;49.96;100268.63;4999122;28;1992;-46
2022/12/13 03:34:01;;;;;;;;;;;;;;;16.17;52.30;100257.16;4998576;28;842;-46
2022/12/13 03:36:26;;;;;;;;;;;;;;;15.81;52.58;100252.69;4998794;28;1164;-47
2022/12/13 03:38:52;;;;;;;;;;;;;;;15.66;52.92;100241.75;4987523;28;1132;-47
2022/12/13 03:41:18;;;;;;;;;;;;;;;17.17;49.67;100235.00;4992802;28;1109;-49
2022/12/13 03:43:44;;;;;;;;;;;;;;;16.53;50.97;100248.69;4962301;28;1213;-46
2022/12/13 03:46:09;;;;;;;;;;;;;;;15.96;52.35;100235.31;4994398;28;1160;-43
2022/12/13 03:48:35;;;;;;;;;;;;;;;15.73;52.94;100239.53;4998638;28;1199;-46
2022/12/13 03:51:01;;;;;;;;;;;;;;;16.04;52.42;100253.13;4998484;28;2017;-48
2022/12/13 03:53:27;;;;;;;;;;;;;;;17.48;48.62;100256.63;4998448;28;2400;-49
2022/12/13 03:55:52;;;;;;;;;;;;;;;16.50;51.25;100271.22;4998576;28;1164;-45
2022/12/13 03:58:17;;;;;;;;;;;;;;;16.01;52.30;100272.91;4998256;28;856;-47
2022/12/13 04:00:43;;;;;;;;;;;;;;;15.72;52.82;100271.63;4998239;28;1160;-47
2022/12/13 04:03:08;;;;;;;;;;;;;;;15.48;53.15;100270.59;4997870;28;1160;-46
2022/12/13 04:05:34;;;;;;;;;;;;;;;16.29;51.64;100271.34;4984428;28;1085;-46
2022/12/13 04:07:59;;;;;;;;;;;;;;;17.07;49.59;100279.88;4998522;28;1085;-46
2022/12/13 04:10:25;;;;;;;;;;;;;;;16.14;51.79;100268.72;4997746;28;1898;-45
2022/12/13 04:15:34;;;;;;;;;;;;;;;15.51;52.92;100267.28;4998017;28;1097;-47
2022/12/13 04:17:59;;;;;;;;;;;;;;;16.81;50.15;100265.50;4990545;28;1121;-49
2022/12/13 04:20:25;;;;;;;;;;;;;;;16.97;49.31;100279.94;4991441;28;1113;-49
2022/12/13 04:22:50;;;;;;;;;;;;;;;16.09;51.45;100286.03;4997898;28;1267;-47
2022/12/13 04:25:16;;;;;;;;;;;;;;;15.78;52.12;100288.03;4998052;28;2586;-46
2022/12/13 04:27:42;;;;;;;;;;;;;;;15.50;52.40;100290.31;4994126;28;1175;-48
2022/12/13 04:30:07;;;;;;;;;;;;;;;15.57;52.29;100301.78;4987582;28;1906;-47
2022/12/13 04:32:33;;;;;;;;;;;;;;;17.17;48.49;100303.69;4997759;28;1109;-48
2022/12/13 04:34:58;;;;;;;;;;;;;;;16.52;49.97;100296.44;4997429;28;937;-48
2022/12/13 04:37:24;;;;;;;;;;;;;;;15.92;51.18;100294.56;4984667;28;1175;-47
2022/12/13 04:39:49;;;;;;;;;;;;;;;15.70;51.99;100309.44;4996447;28;1280;-45
2022/12/13 04:42:14;;;;;;;;;;;;;;;15.39;52.46;100293.09;4997402;28;1211;-45
2022/12/13 04:44:40;;;;;;;;;;;;;;;16.67;49.68;100293.59;4997464;28;1184;-47
2022/12/13 04:47:05;;;;;;;;;;;;;;;16.82;48.87;100306.41;4997523;28;986;-49
2022/12/13 04:49:31;;;;;;;;;;;;;;;16.01;50.88;100303.88;4997436;28;1132;-46
2022/12/13 04:51:57;;;;;;;;;;;;;;;15.67;51.76;100311.91;4997326;28;1966;-50
2022/12/13 04:54:23;;;;;;;;;;;;;;;15.47;52.02;100305.38;4997386;28;2475;-49
2022/12/13 04:56:48;;;;;;;;;;;;;;;16.65;49.53;100315.03;4997283;28;1074;-44
2022/12/13 04:59:14;;;;;;;;;;;;;;;17.02;48.39;100319.16;4997276;28;1022;-41
2022/12/13 05:01:39;;;;;;;;;;;;;;;16.14;50.71;100323.56;4997389;28;1195;-43
2022/12/13 05:04:05;;;;;;;;;;;;;;;15.71;51.76;100327.53;4996489;28;1433;-47
2022/12/13 05:06:30;;;;;;;;;;;;;;;16.20;50.78;100322.41;4997370;28;1097;-45
2022/12/13 05:08:56;;;;;;;;;;;;;;;17.09;48.47;100327.88;4997063;28;991;-46
2022/12/13 05:11:21;;;;;;;;;;;;;;;16.15;50.63;100330.69;4996740;28;1975;-45
2022/12/13 05:13:47;;;;;;;;;;;;;;;15.73;51.51;100328.06;4997089;28;1176;-42
2022/12/13 05:16:14;;;;;;;;;;;;;;;15.50;51.93;100325.94;4995965;28;1133;-46
2022/12/13 05:18:40;;;;;;;;;;;;;;;16.52;49.79;100326.66;4997127;28;1180;-40
2022/12/13 05:21:06;;;;;;;;;;;;;;;16.47;49.67;100329.44;4996633;28;1132;-47
2022/12/13 05:23:31;;;;;;;;;;;;;;;15.85;51.39;100340.66;4996532;28;2401;-44
2022/12/13 05:25:57;;;;;;;;;;;;;;;15.51;52.24;100328.38;4996593;28;1136;-50
2022/12/13 05:28:25;;;;;;;;;;;;;;;16.91;48.71;100332.19;4997084;28;1173;-48
2022/12/13 05:30:50;;;;;;;;;;;;;;;16.69;49.01;100343.56;4982731;28;1902;-47
2022/12/13 05:33:16;;;;;;;;;;;;;;;15.99;50.90;100351.88;4996770;28;1417;-46
2022/12/13 05:35:41;;;;;;;;;;;;;;;15.65;51.77;100353.31;4996250;28;1112;-52
2022/12/13 05:38:06;;;;;;;;;;;;;;;15.46;52.03;100353.06;4996426;28;1192;-49
2022/12/13 05:40:32;;;;;;;;;;;;;;;16.95;48.51;100359.06;4996821;28;1191;-48
2022/12/13 05:42:58;;;;;;;;;;;;;;;16.47;49.61;100365.13;4996450;28;1069;-51
2022/12/13 05:45:23;;;;;;;;;;;;;;;15.87;50.66;100368.66;4996261;28;1133;-49
2022/12/13 05:47:49;;;;;;;;;;;;;;;15.56;51.76;100379.66;4996299;28;1074;-48
2022/12/13 05:50:16;;;;;;;;;;;;;;;16.97;48.49;100382.41;4996295;28;1970;-49
2022/12/13 05:52:43;;;;;;;;;;;;;;;16.42;49.49;100385.16;4996619;28;1145;-51
2022/12/13 05:55:09;;;;;;;;;;;;;;;15.85;50.95;100390.03;4996711;28;1153;-53
2022/12/13 05:57:34;;;;;;;;;;;;;;;15.57;51.69;100394.97;4996334;28;1199;-53
2022/12/13 05:59:59;;;;;;;;;;;;;;;15.33;52.05;100390.09;4996881;28;1116;-48
2022/12/13 06:02:25;;;;;;;;;;;;;;;15.20;52.41;100399.66;4996640;28;1104;-50
2022/12/13 06:04:50;;;;;;;;;;;;;;;16.61;49.34;100404.56;4996326;28;1145;-55
2022/12/13 06:07:16;;;;;;;;;;;;;;;16.85;48.29;100410.16;4996536;28;1251;-50
2022/12/13 06:09:41;;;;;;;;;;;;;;;15.98;50.58;100414.13;4996559;28;1160;-52
2022/12/13 06:12:08;;;;;;;;;;;;;;;15.59;51.53;100422.94;4996918;28;1905;-53
2022/12/13 06:14:34;;;;;;;;;;;;;;;15.40;51.69;100420.75;4996887;28;1196;-52
2022/12/13 06:17:00;;;;;;;;;;;;;;;16.59;49.02;100434.19;4996266;28;1188;-49
2022/12/13 06:19:25;;;;;;;;;;;;;;;16.99;47.76;100437.84;4996316;28;1160;-54
2022/12/13 06:21:51;;;;;;;;;;;;;;;16.10;49.96;100437.69;4996150;28;1116;-51
2022/12/13 06:24:17;;;;;;;;;;;;;;;15.66;50.94;100436.38;4996988;28;1133;-52
2022/12/13 06:26:42;;;;;;;;;;;;;;;15.45;51.49;100443.78;4997402;28;1129;-52
2022/12/13 06:29:09;;;;;;;;;;;;;;;17.17;47.98;100446.53;5000114;28;1129;-52
2022/12/13 06:31:34;;;;;;;;;;;;;;;16.47;50.28;100450.19;5000315;28;1978;-50
2022/12/13 06:34:01;;;;;;;;;;;;;;;17.90;47.11;100455.81;4999731;28;1125;-52
2022/12/13 06:36:26;;;;;;;;;;;;;;;17.20;48.88;100460.50;4999570;28;1228;-50
2022/12/13 06:38:51;;;;;;;;;;;;;;;16.29;49.14;100457.13;5000385;28;1188;-50
2022/12/13 06:41:17;;;;;;;;;;;;;;;17.88;47.81;100460.78;5000080;28;1199;-53
2022/12/13 06:43:43;;;;;;;;;;;;;;;16.63;49.11;100467.41;4999862;28;1553;-51
2022/12/13 06:46:08;;;;;;;;;;;;;;;18.24;46.84;100469.53;4999586;28;1262;-48
2022/12/13 06:48:34;;;;;;;;;;;;;;;17.89;47.55;100471.50;4999885;28;1097;-47
2022/12/13 06:51:02;;;;;;;;;;;;;;;16.76;48.71;100472.31;4999928;28;1910;-53
2022/12/13 06:53:28;;;;;;;;;;;;;;;18.38;46.92;100472.38;4999843;28;1141;-55
2022/12/13 06:55:53;;;;;;;;;;;;;;;17.18;48.56;100478.38;4988919;28;1314;-49
2022/12/13 06:58:19;;;;;;;;;;;;;;;16.77;49.25;100487.66;4998168;28;974;-46
2022/12/13 07:00:45;;;;;;;;;;;;;;;17.72;48.01;100485.66;4998856;28;1085;-52
2022/12/13 07:03:10;;;;;;;;;;;;;;;17.18;49.44;100487.47;4999409;28;1112;-48
2022/12/13 07:05:38;;;;;;;;;;;;;;;18.87;45.85;100488.84;4998983;28;1204;-50
2022/12/13 07:08:04;;;;;;;;;;;;;;;17.65;47.61;100489.88;4998481;28;1093;-52
2022/12/13 07:10:29;;;;;;;;;;;;;;;16.98;47.93;100480.16;4998457;28;1982;-52
2022/12/13 07:12:55;;;;;;;;;;;;;;;16.86;48.27;100487.91;4981950;28;1204;-49
2022/12/13 07:15:20;;;;;;;;;;;;;;;17.46;48.56;100490.56;4999027;28;1200;-52
2022/12/13 07:17:49;;;;;;;;;;;;;;;17.60;48.61;100491.56;4998403;28;1152;-50
2022/12/13 07:20:15;;;;;;;;;;;;;;;19.12;45.48;100498.75;4999258;28;1112;-50
2022/12/13 07:22:40;;;;;;;;;;;;;;;17.57;48.06;100499.53;4998957;28;1149;-48
2022/12/13 07:25:06;;;;;;;;;;;;;;;16.95;48.42;100507.38;4998896;28;1104;-52
2022/12/13 07:27:31;;;;;;;;;;;;;;;18.05;47.45;100502.47;4999463;28;1239;-52
2022/12/13 07:29:57;;;;;;;;;;;;;;;16.96;48.46;100518.09;4998562;28;1989;-51
2022/12/13 07:32:22;;;;;;;;;;;;;;;18.03;47.92;100520.38;4998990;28;1081;-47
2022/12/13 07:34:47;;;;;;;;;;;;;;;17.66;47.94;100522.59;4997799;28;1004;-47
2022/12/13 07:37:13;;;;;;;;;;;;;;;17.05;48.70;100523.78;4998397;28;1128;-52
2022/12/13 07:39:38;;;;;;;;;;;;;;;18.83;45.80;100531.88;4997951;28;1180;-49
2022/12/13 07:42:04;;;;;;;;;;;;;;;17.31;48.20;100532.72;4998466;28;1136;-47
2022/12/13 07:44:29;;;;;;;;;;;;;;;17.99;47.89;100542.13;4981127;28;1106;-52
2022/12/13 07:46:55;;;;;;;;;;;;;;;18.08;47.14;100547.84;4998021;28;1164;-44
2022/12/13 07:49:20;;;;;;;;;;;;;;;17.16;47.72;100538.31;4998687;28;1108;-46
2022/12/13 07:51:46;;;;;;;;;;;;;;;18.29;47.34;100540.22;4997926;28;1976;-49
2022/12/13 07:54:11;;;;;;;;;;;;;;;17.36;48.17;100546.44;4998446;28;1621;-51
2022/12/13 07:56:37;;;;;;;;;;;;;;;17.66;48.53;100541.81;4998022;28;1160;-48
2022/12/13 07:59:02;;;;;;;;;;;;;;;18.33;46.76;100548.69;4997686;28;1097;-52
2022/12/13 08:01:30;;;;;;;;;;;;;;;17.32;47.75;100555.53;4997952;28;1109;-51
2022/12/13 08:03:55;;;;;;;;;;;;;;;18.56;46.68;100563.59;4998227;28;1117;-49
2022/12/13 08:06:21;;;;;;;;;;;;;;;17.58;47.80;100564.44;4998354;28;1113;-48
2022/12/13 08:08:49;;;;;;;;;;;;;;;17.18;47.48;100567.16;4997970;28;1105;-50
2022/12/13 08:11:16;;;;;;;;;;;;;;;18.18;47.27;100571.69;4997972;28;1977;-47
2022/12/13 08:13:41;;;;;;;;;;;;;;;17.09;48.32;100574.31;4998311;28;1168;-45
2022/12/13 08:16:07;;;;;;;;;;;;;;;18.41;46.92;100579.19;4991916;28;1196;-49
2022/12/13 08:18:33;;;;;;;;;;;;;;;18.17;47.03;100575.56;4990698;28;1202;-49
2022/12/13 08:20:59;;;;;;;;;;;;;;;17.24;47.77;100577.00;4997348;28;1201;-51
2022/12/13 08:23:24;;;;;;;;;;;;;;;17.39;48.27;100578.84;4997568;28;1204;-48
2022/12/13 08:25:53;;;;;;;;;;;;;;;17.25;47.87;100583.31;4997626;28;1117;-51
2022/12/13 08:28:20;;;;;;;;;;;;;;;18.57;46.35;100590.03;4997493;28;1189;-51
2022/12/13 08:30:46;;;;;;;;;;;;;;;19.05;44.85;100598.31;4996987;28;1967;-49
2022/12/13 08:33:11;;;;;;;;;;;;;;;17.66;47.13;100599.56;4997648;28;1192;-48
2022/12/13 08:35:37;;;;;;;;;;;;;;;17.25;46.77;100594.28;4997451;28;1129;-45
2022/12/13 08:38:02;;;;;;;;;;;;;;;17.69;47.54;100598.19;4992291;28;1504;-45
2022/12/13 08:40:28;;;;;;;;;;;;;;;17.13;47.61;100588.34;4988247;28;1184;-48
2022/12/13 08:42:54;;;;;;;;;;;;;;;17.15;47.92;100578.69;4997555;28;1145;-53
2022/12/13 08:45:20;;;;;;;;;;;;;;;17.53;47.49;100573.53;4997641;28;1220;-51
2022/12/13 08:47:45;;;;;;;;;;;;;;;16.88;47.60;100571.66;4996690;28;1074;-54
2022/12/13 08:50:11;;;;;;;;;;;;;;;18.07;47.00;100582.78;4996137;28;1906;-45
2022/12/13 08:52:37;;;;;;;;;;;;;;;17.17;47.57;100575.69;4997079;28;1132;-54
2022/12/13 08:55:03;;;;;;;;;;;;;;;18.01;47.17;100575.69;4997180;28;1129;-47
2022/12/13 08:57:28;;;;;;;;;;;;;;;18.22;46.52;100568.06;4996873;28;1204;-50
2022/12/13 08:59:53;;;;;;;;;;;;;;;17.45;48.09;100582.38;4996943;28;1132;-50
2022/12/13 09:02:19;;;;;;;;;;;;;;;19.34;44.40;100597.41;4996497;28;1136;-51
2022/12/13 09:04:44;;;;;;;;;;;;;;;17.94;47.04;100605.47;4997335;28;1176;-51
2022/12/13 09:07:10;;;;;;;;;;;;;;;17.38;47.19;100610.19;4996467;28;1161;-49
2022/12/13 09:09:35;;;;;;;;;;;;;;;18.10;47.17;100618.00;4996831;28;1112;-51
2022/12/13 09:12:01;;;;;;;;;;;;;;;17.21;47.49;100609.72;4996358;28;1986;-51
2022/12/13 09:14:26;;;;;;;;;;;;;;;16.92;46.97;100610.38;4997173;28;1135;-49
2022/12/13 09:16:52;;;;;;;;;;;;;;;17.61;47.43;100597.69;4996820;28;1156;-46
2022/12/13 09:19:17;;;;;;;;;;;;;;;17.55;47.95;100609.00;4996755;28;1140;-50
2022/12/13 09:21:43;;;;;;;;;;;;;;;19.22;44.55;100605.28;4996313;28;1117;-46
2022/12/13 09:24:08;;;;;;;;;;;;;;;18.06;46.82;100599.56;4996172;28;1220;-49
2022/12/13 09:26:33;;;;;;;;;;;;;;;17.38;46.95;100593.69;4996902;28;1188;-47
2022/12/13 09:28:59;;;;;;;;;;;;;;;17.09;47.18;100583.38;4995496;28;1186;-53
2022/12/13 09:31:25;;;;;;;;;;;;;;;17.93;47.28;100593.63;4995455;28;2817;-47
2022/12/13 09:33:50;;;;;;;;;;;;;;;17.11;47.88;100583.13;4995827;28;1125;-51
2022/12/13 09:36:17;;;;;;;;;;;;;;;16.87;46.86;100589.22;4995229;28;1191;-49
2022/12/13 09:38:42;;;;;;;;;;;;;;;17.36;47.88;100581.34;4995880;28;998;-48
2022/12/13 09:41:11;;;;;;;;;;;;;;;17.91;47.38;100581.28;4995859;28;1231;-48
2022/12/13 09:43:37;;;;;;;;;;;;;;;19.39;44.19;100586.31;4995738;28;1164;-50
2022/12/13 09:46:07;;;;;;;;;;;;;;;17.81;46.96;100587.66;4996009;28;1125;-48
2022/12/13 09:48:33;;;;;;;;;;;;;;;17.24;46.81;100582.50;4995287;28;1231;-50
2022/12/13 09:50:58;;;;;;;;;;;;;;;17.95;47.01;100574.09;4995629;28;2040;-47
2022/12/13 09:53:24;;;;;;;;;;;;;;;17.11;47.73;100572.13;4979171;28;1172;-50
2022/12/13 09:55:51;;;;;;;;;;;;;;;17.22;47.91;100567.38;4996201;28;1180;-50
2022/12/13 09:58:18;;;;;;;;;;;;;;;17.63;47.55;100567.16;4978610;28;1102;-47
2022/12/13 10:00:44;;;;;;;;;;;;;;;16.97;47.37;100558.19;4971549;28;1793;-49
2022/12/13 10:03:14;;;;;;;;;;;;;;;18.53;45.85;100569.69;4981864;28;1156;-51
2022/12/13 10:05:40;;;;;;;;;;;;;;;17.35;47.53;100564.03;4999688;28;1196;-49
2022/12/13 10:08:18;;;;;;;;;;;;;;;17.32;47.94;100569.25;4982407;28;1636;-50
2022/12/13 10:10:44;;;;;;;;;;;;;;;17.77;47.03;100562.63;4999245;28;1997;-46
2022/12/13 10:13:12;;;;;;;;;;;;;;;17.06;47.55;100556.47;4999675;28;885;-50
2022/12/13 10:15:38;;;;;;;;;;;;;;;18.18;46.74;100564.25;4999944;28;1163;-50
2022/12/13 10:18:03;;;;;;;;;;;;;;;17.22;47.69;100559.97;4982824;28;1216;-47
2022/12/13 10:20:29;;;;;;;;;;;;;;;17.66;47.62;100566.56;4982375;28;1172;-50
2022/12/13 10:22:54;;;;;;;;;;;;;;;18.18;46.23;100567.00;4982999;28;1145;-52
2022/12/13 10:25:40;;;;;;;;;;;;;;;17.22;47.47;100559.16;4988093;28;889;-49
2022/12/13 10:28:05;;;;;;;;;;;;;;;17.38;47.56;100568.94;4979890;28;1562;-53
2022/12/13 10:30:35;;;;;;;;;;;;;;;17.58;47.39;100564.44;4999900;28;2409;-53
2022/12/13 10:33:01;;;;;;;;;;;;;;;16.98;47.19;100556.25;4982295;28;1456;-48
2022/12/13 10:35:27;;;;;;;;;;;;;;;18.52;45.48;100551.53;4999816;28;1156;-47
2022/12/13 10:37:53;;;;;;;;;;;;;;;17.21;47.34;100555.59;4981498;28;1054;-56
2022/12/13 10:40:25;;;;;;;;;;;;;;;18.07;46.67;100552.50;4999708;28;1192;-50
2022/12/13 10:43:14;;;;;;;;;;;;;;;18.03;46.33;100536.88;5000048;28;1065;-47
2022/12/13 10:45:40;;;;;;;;;;;;;;;17.03;47.16;100526.81;4991409;28;1589;-50
2022/12/13 10:48:09;;;;;;;;;;;;;;;16.87;47.23;100531.56;4999705;28;1276;-50
2022/12/13 10:50:35;;;;;;;;;;;;;;;17.97;46.45;100519.59;4981462;28;1915;-52
2022/12/13 10:53:01;;;;;;;;;;;;;;;17.13;47.10;100508.66;4982233;28;1089;-51
2022/12/13 10:55:31;;;;;;;;;;;;;;;18.27;45.98;100514.88;4999130;28;1184;-53
2022/12/13 10:58:00;;;;;;;;;;;;;;;17.55;46.87;100512.78;4999433;28;1187;-47
2022/12/13 11:00:34;;;;;;;;;;;;;;;16.97;46.88;100510.66;4999264;28;2375;-51
2022/12/13 11:02:59;;;;;;;;;;;;;;;18.12;46.04;100508.44;4999733;28;1105;-51
2022/12/13 11:05:27;;;;;;;;;;;;;;;17.00;47.43;100510.91;4999275;28;1164;-49
2022/12/13 11:07:56;;;;;;;;;;;;;;;16.98;47.53;100518.59;4998969;28;1169;-45
2022/12/13 11:10:22;;;;;;;;;;;;;;;17.39;46.81;100529.38;4999224;28;1956;-50
2022/12/13 11:12:48;;;;;;;;;;;;;;;16.84;46.98;100525.78;4998155;28;905;-52
2022/12/13 11:15:15;;;;;;;;;;;;;;;18.47;45.00;100514.69;4998800;28;1128;-53
2022/12/13 11:17:46;;;;;;;;;;;;;;;17.23;46.71;100514.88;4998928;28;1144;-53
2022/12/13 11:20:32;;;;;;;;;;;;;;;16.79;47.03;100525.81;4981790;28;1164;-49
2022/12/13 11:23:01;;;;;;;;;;;;;;;17.53;46.39;100528.72;4968700;28;1043;-49
2022/12/13 11:25:30;;;;;;;;;;;;;;;17.75;46.36;100529.13;4998425;28;1066;-49
2022/12/13 11:28:00;;;;;;;;;;;;;;;19.30;42.95;100538.47;4993427;28;1060;-48
2022/12/13 11:30:31;;;;;;;;;;;;;;;17.63;46.43;100539.66;4974286;28;2375;-52
2022/12/13 11:32:59;;;;;;;;;;;;;;;17.19;46.24;100535.00;4985277;28;1141;-49
2022/12/13 11:35:30;;;;;;;;;;;;;;;17.81;46.34;100540.06;4998666;28;1061;-47
2022/12/13 11:38:09;;;;;;;;;;;;;;;17.41;46.63;100543.63;4981260;28;1184;-53
2022/12/13 11:40:43;;;;;;;;;;;;;;;16.87;46.68;100533.47;4969910;28;1165;-47
2022/12/13 11:43:31;;;;;;;;;;;;;;;17.75;46.28;100539.28;4997509;28;1141;-49
2022/12/13 11:45:58;;;;;;;;;;;;;;;18.19;45.67;100548.53;4990090;28;1451;-50
2022/12/13 11:48:30;;;;;;;;;;;;;;;19.55;42.49;100542.78;4998644;28;1176;-57
2022/12/13 11:50:56;;;;;;;;;;;;;;;17.83;45.87;100546.91;4980999;28;1971;-49
2022/12/13 11:53:29;;;;;;;;;;;;;;;17.53;46.71;100534.22;4998565;28;1089;-47
2022/12/13 11:55:57;;;;;;;;;;;;;;;17.92;45.87;100536.97;4973491;28;1121;-53
2022/12/13 11:58:32;;;;;;;;;;;;;;;17.23;46.55;100530.56;4992752;28;1117;-48
2022/12/13 12:01:13;;;;;;;;;;;;;;;17.70;46.39;100537.41;4998061;28;2547;-54
2022/12/13 12:03:49;;;;;;;;;;;;;;;17.71;46.11;100529.97;4998844;28;1129;-49
2022/12/13 12:06:41;;;;;;;;;;;;;;;17.05;46.50;100519.13;4981088;28;1256;-56
2022/12/13 12:09:14;;;;;;;;;;;;;;;17.87;46.30;100522.41;4995882;28;1531;-54
2022/12/13 12:11:59;;;;;;;;;;;;;;;17.11;47.38;100522.69;4998817;28;1914;-49
2022/12/13 12:14:34;;;;;;;;;;;;;;;17.43;46.93;100529.59;4981169;28;927;-53
2022/12/13 12:17:00;;;;;;;;;;;;;;;17.62;46.61;100524.25;4981309;28;1228;-48
2022/12/13 12:19:27;;;;;;;;;;;;;;;17.06;46.82;100526.25;4980707;28;1227;-52
2022/12/13 12:21:52;;;;;;;;;;;;;;;17.24;47.06;100518.47;4998327;28;1169;-56
2022/12/13 12:24:21;;;;;;;;;;;;;;;17.52;46.80;100527.09;4998566;28;1133;-47
2022/12/13 12:26:49;;;;;;;;;;;;;;;16.90;47.06;100524.69;4998207;28;974;-53
2022/12/13 12:29:25;;;;;;;;;;;;;;;18.44;45.21;100526.28;4997888;28;1140;-46
2022/12/13 12:31:51;;;;;;;;;;;;;;;17.17;47.15;100535.28;4980659;28;1919;-51
2022/12/13 12:34:19;;;;;;;;;;;;;;;17.55;47.07;100532.03;4998460;28;1161;-52
2022/12/13 12:36:50;;;;;;;;;;;;;;;17.76;46.39;100530.72;4997579;28;1199;-50
2022/12/13 12:39:24;;;;;;;;;;;;;;;16.98;47.00;100535.09;4980637;28;1220;-47
2022/12/13 12:41:50;;;;;;;;;;;;;;;18.54;44.86;100546.56;4980805;28;1157;-47
2022/12/13 12:44:15;;;;;;;;;;;;;;;17.21;47.23;100543.78;4997563;28;1211;-50
2022/12/13 12:46:55;;;;;;;;;;;;;;;17.99;46.38;100558.63;4997465;28;1171;-48
2022/12/13 12:49:33;;;;;;;;;;;;;;;18.01;45.88;100563.88;4979946;28;1169;-50
2022/12/13 12:51:58;;;;;;;;;;;;;;;17.15;46.77;100562.19;4997309;28;1987;-51
2022/12/13 12:54:42;;;;;;;;;;;;;;;18.06;46.29;100563.81;4997986;28;1173;-50
2022/12/13 12:57:11;;;;;;;;;;;;;;;17.16;47.22;100563.03;4997964;28;1188;-48